^^
Station Historical Data
 
Daily Summary for January 18, 2017 Units:  English    Metric   Both
« Previous Day
Next Day »
Daily Weekly Monthly Yearly Custom
  Current: High: Low: Average:
Temperature: 64.9 °F 64.9 °F 58.4 °F 60.6 °F
Dew Point: 63.7 °F 63.7 °F 57.6 °F 59.5 °F
Humidity: 96% 97% 95% 96%
Wind Speed: 0.0mph 0.0mph 0.0mph 0mph
Wind Gust: 1.0mph 13.0mph - -
WindCalm - - North
Pressure: 30.17 in 30.18 in 30.12 in -
Precipitation: 0.00 in      
Historical Graphs
 
 
Tabular Data for January 18, 2017
Time Temperature Dew Point Pressure Wind Wind Speed Wind Gust Humidity Rainfall Rate (Hourly) solar Conditions
00:00 63.2 °F 61.7 °F 30.18 in Calm     95% 0.00 in 0.0 W/m2 CLR
00:05 63.1 °F 61.6 °F 30.18 in Calm     95% 0.00 in 0.0 W/m2 CLR
00:15 62.9 °F 61.4 °F 30.17 in Calm     95% 0.00 in 0.0 W/m2 CLR
00:20 62.8 °F 61.3 °F 30.17 in Calm     95% 0.00 in 0.0 W/m2 CLR
00:30 62.8 °F 61.3 °F 30.17 in Calm     95% 0.00 in 0.0 W/m2 CLR
00:40 62.6 °F 61.1 °F 30.17 in Calm     95% 0.00 in 0.0 W/m2 CLR
00:45 62.3 °F 60.9 °F 30.17 in Calm     95% 0.00 in 0.0 W/m2 CLR
00:55 61.9 °F 60.5 °F 30.17 in Calm     95% 0.00 in 0.0 W/m2 CLR
01:00 61.9 °F 60.5 °F 30.17 in Calm     95% 0.00 in 0.0 W/m2 CLR
01:10 61.8 °F 60.4 °F 30.17 in Calm     95% 0.00 in 0.0 W/m2 CLR
01:15 61.7 °F 60.6 °F 30.17 in Calm     96% 0.00 in 0.0 W/m2 CLR
01:25 61.4 °F 59.9 °F 30.17 in Calm     95% 0.00 in 0.0 W/m2 CLR
01:30 61.2 °F 59.8 °F 30.17 in Calm     95% 0.00 in 0.0 W/m2 CLR
01:40 60.8 °F 59.4 °F 30.17 in Calm     95% 0.00 in 0.0 W/m2 CLR
01:45 60.9 °F 59.8 °F 30.16 in Calm     96% 0.00 in 0.0 W/m2 CLR
01:55 60.4 °F 59.0 °F 30.16 in Calm     95% 0.00 in 0.0 W/m2 CLR
02:00 60.2 °F 59.1 °F 30.16 in Calm     96% 0.00 in 0.0 W/m2 CLR
02:10 59.6 °F 58.5 °F 30.16 in Calm   13.0 mph 96% 0.00 in 0.0 W/m2 CLR
02:15 59.8 °F 58.6 °F 30.15 in Calm     96% 0.00 in 0.0 W/m2 CLR
02:20 60.1 °F 59.0 °F 30.16 in Calm     96% 0.00 in 0.0 W/m2 CLR
02:30 60.4 °F 59.2 °F 30.16 in Calm     96% 0.00 in 0.0 W/m2 CLR
02:40 60.2 °F 59.0 °F 30.15 in Calm     96% 0.00 in 0.0 W/m2 CLR
02:45 59.9 °F 58.8 °F 30.15 in Calm     96% 0.00 in 0.0 W/m2 CLR
02:50 60.0 °F 58.9 °F 30.15 in Calm     96% 0.00 in 0.0 W/m2 CLR
03:00 60.1 °F 59.0 °F 30.15 in Calm     96% 0.00 in 0.0 W/m2 CLR
03:10 60.1 °F 59.0 °F 30.14 in Calm     96% 0.00 in 0.0 W/m2 CLR
03:15 60.1 °F 58.9 °F 30.14 in Calm     96% 0.00 in 0.0 W/m2 CLR
03:25 59.8 °F 58.7 °F 30.14 in Calm     96% 0.00 in 0.0 W/m2 CLR
03:30 59.6 °F 58.5 °F 30.14 in Calm     96% 0.00 in 0.0 W/m2 CLR
03:40 59.9 °F 58.8 °F 30.14 in Calm     96% 0.00 in 0.0 W/m2 CLR
03:45 60.2 °F 59.1 °F 30.14 in Calm     96% 0.00 in 0.0 W/m2 CLR
03:50 60.3 °F 59.4 °F 30.14 in Calm     97% 0.00 in 0.0 W/m2 CLR
04:00 60.4 °F 59.5 °F 30.14 in Calm     97% 0.00 in 0.0 W/m2 CLR
04:10 60.3 °F 59.2 °F 30.14 in Calm     96% 0.00 in 0.0 W/m2 CLR
04:15 60.4 °F 59.3 °F 30.14 in Calm     96% 0.00 in 0.0 W/m2 CLR
04:20 60.2 °F 59.1 °F 30.14 in Calm     96% 0.00 in 0.0 W/m2 CLR
04:30 60.0 °F 58.9 °F 30.13 in Calm     96% 0.00 in 0.0 W/m2 CLR
04:40 59.9 °F 58.8 °F 30.13 in Calm     96% 0.00 in 0.0 W/m2 CLR
04:45 59.8 °F 58.7 °F 30.12 in Calm     96% 0.00 in 0.0 W/m2 CLR
04:50 59.9 °F 58.7 °F 30.12 in Calm     96% 0.00 in 0.0 W/m2 CLR
05:00 60.0 °F 59.1 °F 30.13 in Calm     97% 0.00 in 0.0 W/m2 CLR
05:10 60.2 °F 59.3 °F 30.14 in Calm     97% 0.00 in 0.0 W/m2 CLR
05:15 60.1 °F 59.2 °F 30.13 in Calm     97% 0.00 in 0.0 W/m2 CLR
05:20 60.1 °F 59.2 °F 30.13 in Calm     97% 0.00 in 0.0 W/m2 CLR
05:30 59.6 °F 58.5 °F 30.13 in Calm     96% 0.00 in 0.0 W/m2 CLR
05:40 59.6 °F 58.4 °F 30.13 in Calm     96% 0.00 in 0.0 W/m2 CLR
05:45 59.4 °F 58.6 °F 30.13 in Calm     97% 0.00 in 0.0 W/m2 CLR
05:50 59.3 °F 58.4 °F 30.14 in Calm     97% 0.00 in 0.0 W/m2 CLR
06:00 59.4 °F 58.5 °F 30.14 in Calm     97% 0.00 in 0.0 W/m2 CLR
06:10 59.2 °F 58.3 °F 30.14 in Calm     97% 0.00 in 0.0 W/m2 CLR
06:15 59.4 °F 58.5 °F 30.13 in Calm     97% 0.00 in 0.0 W/m2 CLR
06:20 59.3 °F 58.4 °F 30.14 in Calm     97% 0.00 in 0.0 W/m2 CLR
06:25 59.1 °F 58.3 °F 30.14 in Calm     97% 0.00 in 0.0 W/m2 CLR
06:30 59.3 °F 58.5 °F 30.14 in Calm     97% 0.00 in 0.0 W/m2 CLR
06:40 59.3 °F 58.4 °F 30.14 in Calm     97% 0.00 in 0.0 W/m2 CLR
06:45 59.2 °F 58.3 °F 30.14 in Calm     97% 0.00 in 0.0 W/m2 CLR
06:55 58.6 °F 57.7 °F 30.15 in Calm     97% 0.00 in 0.0 W/m2 CLR
07:00 58.5 °F 57.7 °F 30.15 in Calm     97% 0.00 in 0.0 W/m2 CLR
07:10 58.5 °F 57.7 °F 30.15 in Calm     97% 0.00 in 0.0 W/m2 CLR
07:15 58.4 °F 57.6 °F 30.15 in Calm     97% 0.00 in 0.0 W/m2 CLR
07:25 58.7 °F 57.8 °F 30.15 in Calm     97% 0.00 in 0.0 W/m2 CLR
07:30 58.7 °F 57.9 °F 30.15 in Calm     97% 0.00 in 0.0 W/m2 CLR
07:40 59.1 °F 58.2 °F 30.15 in Calm     97% 0.00 in 0.0 W/m2 CLR
07:45 59.3 °F 58.4 °F 30.15 in Calm     97% 0.00 in 0.0 W/m2 CLR
07:55 60.6 °F 59.7 °F 30.16 in Calm     97% 0.00 in 0.0 W/m2 CLR
08:00 61.4 °F 60.5 °F 30.15 in Calm     97% 0.00 in 0.0 W/m2 CLR
08:15 61.6 °F 60.8 °F 30.16 in Calm     97% 0.00 in 0.0 W/m2 CLR
08:25 62.2 °F 61.4 °F 30.16 in Calm     97% 0.00 in 0.0 W/m2 CLR
08:30 62.4 °F 61.5 °F 30.16 in Calm     97% 0.00 in 0.0 W/m2 CLR
08:40 62.6 °F 61.8 °F 30.16 in Calm     97% 0.00 in 0.0 W/m2 CLR
08:45 63.0 °F 62.1 °F 30.16 in Calm     97% 0.00 in 0.0 W/m2 CLR
08:50 63.2 °F 62.3 °F 30.17 in Calm     97% 0.00 in 0.0 W/m2 CLR
09:00 64.5 °F 63.7 °F 30.17 in Calm   1.0 mph 97% 0.00 in 0.0 W/m2 CLR
09:10 64.9 °F 63.7 °F 30.17 in Calm   1.0 mph 96% 0.00 in 0.0 W/m2 CLR
Lake Mary, FL, USA
Compliments of Weather Underground - 1.25 mb